Time;durP1;ratioP1;P1;durP2;ratioP2;P2;SDS_P1;SDS_P2;PMS_P1;PMS_P2;Temp;Humidity;BMP_temperature;BMP_pressure;BME280_temperature;BME280_humidity;BME280_pressure;Samples;Min_cycle;Max_cycle;Signal;HPM_P1;HPM_P2
2023/07/24 00:00:14;;;;;;;5.57;3.55;;;16.50;99.90;;;;;;5084202;28;20036;-65
2023/07/24 00:02:40;;;;;;;5.25;3.28;;;16.40;99.90;;;;;;5075967;28;20051;-65
2023/07/24 00:05:06;;;;;;;6.30;4.00;;;16.40;99.90;;;;;;5068926;28;20051;-65
2023/07/24 00:07:32;;;;;;;7.68;3.58;;;16.40;99.90;;;;;;5073790;28;20040;-65
2023/07/24 00:09:58;;;;;;;7.45;4.00;;;16.40;99.90;;;;;;5080245;28;20041;-65
2023/07/24 00:12:23;;;;;;;7.90;3.97;;;16.40;99.90;;;;;;5083385;28;20040;-65
2023/07/24 00:14:51;;;;;;;6.35;3.80;;;16.40;99.90;;;;;;5090354;28;20051;-65
2023/07/24 00:17:17;;;;;;;4.50;3.45;;;16.40;99.90;;;;;;5088917;28;20572;-65
2023/07/24 00:19:43;;;;;;;6.05;3.15;;;16.40;99.90;;;;;;5076112;28;20051;-65
2023/07/24 00:22:08;;;;;;;5.28;3.63;;;16.40;99.90;;;;;;5087722;28;20123;-65
2023/07/24 00:24:34;;;;;;;5.18;3.67;;;16.40;99.90;;;;;;5088943;28;20051;-65
2023/07/24 00:27:00;;;;;;;5.55;3.95;;;16.30;99.90;;;;;;5089197;28;20440;-65
2023/07/24 00:29:25;;;;;;;9.25;4.13;;;16.30;99.90;;;;;;5089908;28;20073;-65
2023/07/24 00:31:51;;;;;;;12.15;4.03;;;16.30;99.90;;;;;;5089789;28;20040;-65
2023/07/24 00:34:17;;;;;;;7.43;3.80;;;16.30;99.90;;;;;;5089928;28;20402;-65
2023/07/24 00:36:43;;;;;;;5.32;3.50;;;16.40;99.90;;;;;;5075428;28;20042;-65
2023/07/24 00:39:08;;;;;;;6.85;3.97;;;16.40;99.90;;;;;;5088972;28;20085;-65
2023/07/24 00:41:34;;;;;;;5.38;3.58;;;16.40;99.90;;;;;;5089495;28;20048;-65
2023/07/24 00:44:00;;;;;;;7.47;3.85;;;16.30;99.90;;;;;;5087536;28;20082;-65
2023/07/24 00:46:25;;;;;;;7.47;4.07;;;16.30;99.90;;;;;;5071670;28;20048;-65
2023/07/24 00:48:53;;;;;;;5.15;3.25;;;16.30;99.90;;;;;;5089168;28;20036;-65
2023/07/24 00:51:19;;;;;;;6.22;4.15;;;16.30;99.90;;;;;;5089845;28;20044;-65
2023/07/24 00:53:47;;;;;;;6.32;4.00;;;16.30;99.90;;;;;;5089377;28;20504;-65
2023/07/24 00:56:13;;;;;;;9.48;4.10;;;16.30;99.90;;;;;;5088977;28;20082;-65
2023/07/24 00:58:39;;;;;;;6.43;3.95;;;16.30;99.90;;;;;;5089821;28;20071;-64
2023/07/24 01:01:05;;;;;;;7.20;3.70;;;16.40;99.90;;;;;;5088796;28;20480;-65
2023/07/24 01:03:35;;;;;;;7.72;4.40;;;16.30;99.90;;;;;;5089585;28;20044;-65
2023/07/24 01:06:04;;;;;;;7.85;3.85;;;16.30;99.90;;;;;;5073437;28;20056;-65
2023/07/24 01:08:30;;;;;;;6.40;3.70;;;16.20;99.90;;;;;;5087927;28;20066;-65
2023/07/24 01:10:59;;;;;;;5.57;3.95;;;16.20;99.90;;;;;;5078539;28;20760;-65
2023/07/24 01:13:28;;;;;;;5.40;3.95;;;16.30;99.90;;;;;;5086974;28;20044;-65
2023/07/24 01:16:08;;;;;;;5.07;3.72;;;16.30;99.90;;;;;;5089480;28;20410;-65
2023/07/24 01:18:36;;;;;;;5.85;4.00;;;16.30;99.90;;;;;;5087783;28;20054;-65
2023/07/24 01:21:04;;;;;;;5.65;3.88;;;16.30;99.90;;;;;;5086539;28;20090;-65
2023/07/24 01:23:54;;;;;;;5.75;3.95;;;16.30;99.90;;;;;;5087889;28;20112;-65
2023/07/24 01:26:23;;;;;;;6.70;4.07;;;16.30;99.90;;;;;;5087946;28;20097;-65
2023/07/24 01:28:49;;;;;;;9.67;4.83;;;16.30;99.90;;;;;;5089514;28;20094;-65
2023/07/24 01:31:16;;;;;;;10.13;4.65;;;16.30;99.90;;;;;;5083665;28;20820;-65
2023/07/24 01:33:43;;;;;;;6.35;4.05;;;16.20;99.90;;;;;;5054971;28;20036;-65
2023/07/24 01:36:09;;;;;;;7.32;4.20;;;16.20;99.90;;;;;;5087890;28;20048;-65
2023/07/24 01:38:36;;;;;;;5.63;4.25;;;16.20;99.90;;;;;;5088516;28;20046;-66
2023/07/24 01:41:03;;;;;;;5.53;3.90;;;16.20;99.90;;;;;;5086590;28;20134;-65
2023/07/24 01:43:30;;;;;;;7.45;4.70;;;16.20;99.90;;;;;;5088028;28;20376;-65
2023/07/24 01:45:56;;;;;;;7.57;4.82;;;16.10;99.90;;;;;;5088756;28;20116;-65
2023/07/24 01:48:22;;;;;;;7.03;4.65;;;16.10;99.90;;;;;;5087589;28;20047;-65
2023/07/24 01:50:47;;;;;;;9.80;4.53;;;16.10;99.90;;;;;;5086596;28;20039;-65
2023/07/24 01:53:13;;;;;;;7.18;4.28;;;16.10;99.90;;;;;;5087690;28;20180;-65
2023/07/24 01:55:39;;;;;;;6.43;4.65;;;16.10;99.90;;;;;;5088735;28;20363;-65
2023/07/24 01:58:05;;;;;;;8.63;4.43;;;16.00;99.90;;;;;;5087715;28;20044;-65
2023/07/24 02:00:30;;;;;;;11.20;4.65;;;16.10;99.90;;;;;;5088095;28;20031;-65
2023/07/24 02:02:56;;;;;;;8.13;4.85;;;16.10;99.90;;;;;;5088740;28;20051;-65
2023/07/24 02:05:22;;;;;;;11.98;4.78;;;16.00;99.90;;;;;;5086180;28;20103;-65
2023/07/24 02:07:48;;;;;;;8.88;5.00;;;16.00;99.90;;;;;;5078380;28;20101;-65
2023/07/24 02:10:14;;;;;;;7.10;4.43;;;16.00;99.90;;;;;;5069386;28;20045;-65
2023/07/24 02:12:39;;;;;;;11.02;5.32;;;16.10;99.90;;;;;;5086079;28;20052;-65
2023/07/24 02:15:06;;;;;;;5.45;4.82;;;16.00;99.90;;;;;;5086751;28;20105;-65
2023/07/24 02:17:32;;;;;;;8.57;5.55;;;16.00;99.90;;;;;;5088467;28;20604;-65
2023/07/24 02:20:03;;;;;;;5.50;4.90;;;16.00;99.90;;;;;;5087868;28;20448;-65
2023/07/24 02:22:29;;;;;;;9.02;5.03;;;16.00;99.90;;;;;;5087543;28;20391;-65
2023/07/24 02:24:55;;;;;;;7.35;5.70;;;16.00;99.90;;;;;;5086436;28;20328;-65
2023/07/24 02:27:31;;;;;;;6.85;5.13;;;15.90;99.90;;;;;;5086855;28;20123;-65
2023/07/24 02:29:57;;;;;;;9.05;5.55;;;16.00;99.90;;;;;;5087580;28;20376;-65
2023/07/24 02:32:23;;;;;;;7.47;5.28;;;15.90;99.90;;;;;;5086769;28;20127;-65
2023/07/24 02:34:52;;;;;;;6.05;5.35;;;15.90;99.90;;;;;;5070547;28;20127;-65
2023/07/24 02:37:18;;;;;;;6.43;5.78;;;15.90;99.90;;;;;;5059914;28;20051;-65
2023/07/24 02:39:44;;;;;;;8.10;5.47;;;15.90;99.90;;;;;;5072741;28;20044;-65
2023/07/24 02:42:09;;;;;;;9.30;5.70;;;15.90;99.90;;;;;;5086306;28;20056;-64
2023/07/24 02:44:35;;;;;;;8.52;5.53;;;15.90;99.90;;;;;;5086223;28;20066;-65
2023/07/24 02:47:07;;;;;;;9.32;5.85;;;15.80;99.90;;;;;;5075275;28;20051;-65
2023/07/24 02:49:33;;;;;;;7.97;5.65;;;15.80;99.90;;;;;;5086430;28;20036;-65
2023/07/24 02:51:59;;;;;;;6.28;5.65;;;15.80;99.90;;;;;;5087529;28;20766;-65
2023/07/24 02:54:26;;;;;;;8.70;6.18;;;15.90;99.90;;;;;;5085498;28;20074;-65
2023/07/24 02:56:51;;;;;;;9.25;5.18;;;15.80;99.90;;;;;;5086471;28;20059;-65
2023/07/24 02:59:17;;;;;;;8.63;5.47;;;15.90;99.90;;;;;;5069421;28;20052;-65
2023/07/24 03:01:43;;;;;;;8.63;5.60;;;15.90;99.90;;;;;;5086476;28;20040;-65
2023/07/24 03:04:09;;;;;;;10.20;5.47;;;15.90;99.90;;;;;;5086726;28;20043;-65
2023/07/24 03:06:35;;;;;;;8.32;5.88;;;16.00;99.90;;;;;;5084710;28;20036;-65
2023/07/24 03:09:01;;;;;;;8.98;5.75;;;15.90;99.90;;;;;;5084012;28;20060;-64
2023/07/24 03:11:27;;;;;;;8.50;5.70;;;16.00;99.90;;;;;;5083288;28;20044;-65
2023/07/24 03:13:52;;;;;;;8.38;6.05;;;16.00;99.90;;;;;;5087322;28;20123;-65
2023/07/24 03:16:19;;;;;;;7.35;6.03;;;16.10;99.90;;;;;;5086702;28;20409;-65
2023/07/24 03:18:45;;;;;;;7.97;6.22;;;16.00;99.90;;;;;;5076893;28;20505;-65
2023/07/24 03:21:11;;;;;;;9.70;6.93;;;16.10;99.90;;;;;;5068892;28;20117;-65
2023/07/24 03:23:36;;;;;;;6.20;5.55;;;16.00;99.90;;;;;;5086527;28;20043;-65
2023/07/24 03:26:02;;;;;;;6.28;5.43;;;16.10;99.90;;;;;;5087111;28;20065;-64
2023/07/24 03:28:28;;;;;;;9.88;5.78;;;16.10;99.90;;;;;;5086644;28;20479;-65
2023/07/24 03:30:54;;;;;;;7.82;5.57;;;16.10;99.90;;;;;;5087326;28;20079;-65
2023/07/24 03:33:21;;;;;;;7.32;5.80;;;16.10;99.90;;;;;;5070818;28;20596;-65
2023/07/24 03:35:46;;;;;;;9.05;5.90;;;16.10;99.90;;;;;;5086787;28;20040;-65
2023/07/24 03:38:12;;;;;;;9.10;5.57;;;16.10;99.90;;;;;;5087005;28;20064;-64
2023/07/24 03:40:38;;;;;;;8.23;5.68;;;16.10;99.90;;;;;;5086087;28;20048;-65
2023/07/24 03:43:03;;;;;;;5.47;4.78;;;16.20;99.90;;;;;;5086668;28;20295;-65
2023/07/24 03:45:29;;;;;;;5.90;5.30;;;16.20;99.90;;;;;;5089041;28;20527;-65
2023/07/24 03:47:55;;;;;;;8.10;5.25;;;16.20;99.90;;;;;;5090474;28;20088;-65
2023/07/24 03:50:21;;;;;;;11.18;5.78;;;16.20;99.90;;;;;;5090062;28;20093;-65
2023/07/24 03:52:47;;;;;;;5.25;4.75;;;16.30;99.90;;;;;;5089205;28;20084;-65
2023/07/24 03:55:12;;;;;;;8.95;5.82;;;16.30;99.90;;;;;;5084938;28;20048;-65
2023/07/24 03:57:38;;;;;;;8.40;4.85;;;16.30;99.90;;;;;;5079966;28;20134;-65
2023/07/24 04:00:04;;;;;;;10.65;5.38;;;16.30;99.90;;;;;;5090398;28;20052;-65
2023/07/24 04:02:30;;;;;;;15.23;4.85;;;16.30;99.90;;;;;;5089514;28;20482;-65
2023/07/24 04:04:56;;;;;;;8.88;5.03;;;16.40;99.90;;;;;;5090263;28;20136;-65
2023/07/24 04:07:21;;;;;;;7.45;4.75;;;16.40;99.90;;;;;;5088252;28;20051;-65
2023/07/24 04:09:49;;;;;;;6.25;4.50;;;16.40;99.90;;;;;;5080907;28;20048;-66
2023/07/24 04:12:14;;;;;;;4.97;4.57;;;16.40;99.90;;;;;;5084084;28;20044;-65
2023/07/24 04:14:40;;;;;;;7.35;4.75;;;16.40;99.90;;;;;;5090586;28;20491;-65
2023/07/24 04:17:06;;;;;;;8.68;5.35;;;16.40;99.90;;;;;;5090157;28;20475;-65
2023/07/24 04:19:32;;;;;;;7.00;4.93;;;16.40;99.90;;;;;;5087954;28;20089;-65
2023/07/24 04:21:57;;;;;;;7.13;4.80;;;16.50;99.90;;;;;;5087909;28;20039;-65
2023/07/24 04:24:23;;;;;;;7.70;4.75;;;16.50;99.90;;;;;;5087626;28;20059;-65
2023/07/24 04:26:49;;;;;;;5.38;4.88;;;16.50;99.90;;;;;;5090804;28;20036;-65
2023/07/24 04:29:17;;;;;;;6.63;4.85;;;16.50;99.90;;;;;;5089115;28;20040;-65
2023/07/24 04:31:43;;;;;;;6.63;5.45;;;16.40;99.90;;;;;;5087270;28;20119;-65
2023/07/24 04:34:09;;;;;;;5.13;4.65;;;16.50;99.90;;;;;;5089380;28;20545;-65
2023/07/24 04:36:34;;;;;;;6.95;4.60;;;16.50;99.90;;;;;;5087725;28;20048;-65
2023/07/24 04:39:00;;;;;;;8.00;5.47;;;16.50;99.90;;;;;;5082708;28;20052;-65
2023/07/24 04:41:26;;;;;;;8.52;4.90;;;16.50;99.90;;;;;;5087029;28;20063;-65
2023/07/24 04:43:53;;;;;;;8.32;4.78;;;16.50;99.90;;;;;;5088718;28;20123;-65
2023/07/24 04:46:18;;;;;;;5.80;5.28;;;16.60;99.90;;;;;;5088113;28;20125;-65
2023/07/24 04:48:44;;;;;;;7.25;5.40;;;16.60;99.90;;;;;;5088217;28;20036;-65
2023/07/24 04:51:10;;;;;;;6.13;4.35;;;16.60;99.90;;;;;;5087313;28;20203;-65
2023/07/24 04:53:35;;;;;;;6.80;5.03;;;16.60;99.90;;;;;;5087824;28;20036;-65
2023/07/24 04:56:01;;;;;;;7.28;4.93;;;16.50;99.90;;;;;;5076284;28;20128;-65
2023/07/24 04:58:27;;;;;;;5.72;4.63;;;16.60;99.90;;;;;;5080939;28;20127;-65
2023/07/24 05:00:52;;;;;;;6.88;4.90;;;16.60;99.90;;;;;;5077631;28;20044;-65
2023/07/24 05:03:19;;;;;;;5.45;4.95;;;16.60;99.90;;;;;;5087070;28;20044;-65
2023/07/24 05:05:49;;;;;;;5.43;4.93;;;16.60;99.90;;;;;;5088435;28;20040;-65
2023/07/24 05:08:15;;;;;;;6.55;5.15;;;16.60;99.90;;;;;;5087583;28;20048;-65
2023/07/24 05:10:40;;;;;;;10.07;5.18;;;16.70;99.90;;;;;;5073753;28;20059;-65
2023/07/24 05:13:06;;;;;;;5.15;4.68;;;16.70;99.90;;;;;;5086388;28;20509;-65
2023/07/24 05:15:32;;;;;;;5.10;4.55;;;16.70;99.90;;;;;;5086029;28;20052;-65
2023/07/24 05:17:57;;;;;;;5.50;4.95;;;16.70;99.90;;;;;;5087672;28;20040;-65
2023/07/24 05:20:23;;;;;;;7.03;5.18;;;16.70;99.90;;;;;;5087268;28;20048;-65
2023/07/24 05:22:49;;;;;;;5.18;4.78;;;16.70;99.90;;;;;;5085508;28;20117;-65
2023/07/24 05:25:15;;;;;;;5.07;4.68;;;16.70;99.90;;;;;;5086738;28;20040;-65
2023/07/24 05:27:40;;;;;;;5.50;4.88;;;16.70;99.90;;;;;;5087517;28;20113;-65
2023/07/24 05:30:07;;;;;;;4.88;4.38;;;16.70;99.90;;;;;;5087410;28;20040;-65
2023/07/24 05:32:32;;;;;;;6.15;4.57;;;16.70;99.90;;;;;;5102827;28;20130;-64
2023/07/24 05:34:59;;;;;;;6.18;4.57;;;16.70;99.90;;;;;;5086651;28;20115;-65
2023/07/24 05:37:25;;;;;;;4.63;4.20;;;16.80;99.90;;;;;;5087003;28;20581;-65
2023/07/24 05:39:51;;;;;;;5.32;4.82;;;16.80;99.90;;;;;;5052436;28;20131;-65
2023/07/24 05:42:16;;;;;;;5.05;4.55;;;16.90;99.90;;;;;;5086316;28;20051;-65
2023/07/24 05:44:42;;;;;;;5.93;5.30;;;16.90;99.90;;;;;;5085913;28;20044;-65
2023/07/24 05:47:08;;;;;;;5.60;4.80;;;16.80;99.90;;;;;;5085079;28;20501;-65
2023/07/24 05:49:33;;;;;;;4.65;4.25;;;16.90;99.90;;;;;;5087374;28;20047;-65
2023/07/24 05:51:59;;;;;;;8.48;5.40;;;16.90;99.90;;;;;;5087621;28;20048;-65
2023/07/24 05:54:25;;;;;;;7.20;5.18;;;16.90;99.90;;;;;;5086617;28;20494;-65
2023/07/24 05:56:52;;;;;;;5.50;4.88;;;16.90;99.90;;;;;;5085557;28;20071;-65
2023/07/24 05:59:17;;;;;;;5.13;4.63;;;17.00;99.90;;;;;;5086335;28;20048;-65
2023/07/24 06:01:43;;;;;;;7.43;4.68;;;17.00;99.90;;;;;;5087584;28;20096;-65
2023/07/24 06:04:09;;;;;;;6.10;4.85;;;17.10;99.90;;;;;;5085071;28;20482;-65
2023/07/24 06:06:36;;;;;;;6.15;4.90;;;17.20;99.90;;;;;;5086779;28;20115;-65
2023/07/24 06:09:02;;;;;;;6.82;5.35;;;17.20;99.90;;;;;;5070403;28;20050;-65
2023/07/24 06:11:34;;;;;;;5.57;4.38;;;17.30;99.90;;;;;;5075436;28;20119;-65
2023/07/24 06:13:59;;;;;;;5.82;4.90;;;17.30;99.90;;;;;;5086561;28;20123;-65
2023/07/24 06:16:25;;;;;;;6.05;4.20;;;17.40;99.90;;;;;;5071038;28;20047;-65
2023/07/24 06:18:51;;;;;;;6.35;4.32;;;17.40;99.90;;;;;;5087300;28;20058;-65
2023/07/24 06:21:17;;;;;;;7.90;4.97;;;17.40;99.90;;;;;;5079197;28;20052;-65
2023/07/24 06:23:42;;;;;;;6.53;4.57;;;17.50;99.90;;;;;;5077506;28;20047;-65
2023/07/24 06:26:08;;;;;;;5.00;4.35;;;17.40;99.90;;;;;;5086010;28;20040;-65
2023/07/24 06:28:34;;;;;;;7.57;4.47;;;17.50;99.90;;;;;;5086179;28;20539;-65
2023/07/24 06:30:59;;;;;;;6.30;4.53;;;17.40;99.90;;;;;;5086674;28;20048;-65
2023/07/24 06:33:25;;;;;;;5.68;4.78;;;17.40;99.90;;;;;;5085807;28;20200;-65
2023/07/24 06:35:51;;;;;;;5.65;4.38;;;17.30;99.90;;;;;;5085687;28;20044;-65
2023/07/24 06:38:17;;;;;;;6.97;4.65;;;17.40;99.90;;;;;;5084936;28;20032;-65
2023/07/24 06:40:43;;;;;;;7.35;4.32;;;17.40;99.90;;;;;;5086765;28;20371;-64
2023/07/24 06:43:09;;;;;;;7.05;4.72;;;17.50;99.90;;;;;;5085602;28;20130;-65
2023/07/24 06:45:34;;;;;;;7.78;4.75;;;17.50;99.90;;;;;;5086509;28;20040;-65
2023/07/24 06:48:00;;;;;;;4.95;4.20;;;17.60;99.90;;;;;;5086022;28;20137;-65
2023/07/24 06:50:26;;;;;;;6.93;4.85;;;17.70;99.90;;;;;;5084416;28;20075;-65
2023/07/24 06:52:53;;;;;;;7.50;4.68;;;17.80;99.90;;;;;;5068513;28;20905;-65
2023/07/24 06:55:19;;;;;;;6.47;4.72;;;17.90;99.90;;;;;;5085430;28;20079;-64
2023/07/24 06:57:45;;;;;;;5.93;4.40;;;18.00;99.90;;;;;;5086827;28;20127;-65
2023/07/24 07:00:11;;;;;;;6.45;4.75;;;18.00;99.90;;;;;;5083168;28;20469;-65
2023/07/24 07:02:38;;;;;;;7.10;4.20;;;18.10;99.90;;;;;;5084733;28;20052;-65
2023/07/24 07:05:04;;;;;;;6.75;4.88;;;18.10;99.90;;;;;;5083579;28;20842;-65
2023/07/24 07:07:30;;;;;;;5.20;4.20;;;18.20;99.90;;;;;;5085562;28;20506;-64
2023/07/24 07:09:56;;;;;;;6.35;5.03;;;18.20;99.90;;;;;;5084996;28;20115;-65
2023/07/24 07:12:22;;;;;;;8.77;4.68;;;18.20;99.90;;;;;;5085203;28;20120;-65
2023/07/24 07:14:48;;;;;;;9.30;4.88;;;18.30;99.90;;;;;;5086337;28;20058;-65
2023/07/24 07:17:13;;;;;;;10.50;5.15;;;18.30;99.90;;;;;;5084974;28;20449;-65
2023/07/24 07:19:39;;;;;;;6.80;4.55;;;18.30;99.90;;;;;;5087917;28;20048;-65
2023/07/24 07:22:05;;;;;;;8.85;4.25;;;18.30;99.90;;;;;;5089683;28;20063;-65
2023/07/24 07:24:31;;;;;;;5.40;4.05;;;18.40;99.90;;;;;;5088333;28;20043;-64
2023/07/24 07:26:56;;;;;;;10.05;4.55;;;18.40;99.90;;;;;;5090323;28;20032;-65
2023/07/24 07:29:22;;;;;;;10.25;4.95;;;18.40;99.90;;;;;;5087597;28;20043;-65
2023/07/24 07:31:48;;;;;;;8.10;4.90;;;18.40;99.90;;;;;;5078849;28;20101;-65
2023/07/24 07:34:13;;;;;;;6.95;3.90;;;18.50;99.90;;;;;;5075555;28;20040;-65
2023/07/24 07:36:39;;;;;;;5.88;4.18;;;18.50;99.90;;;;;;5080721;28;20098;-65
2023/07/24 07:39:05;;;;;;;7.00;4.75;;;18.50;99.90;;;;;;5078452;28;20048;-65
2023/07/24 07:41:31;;;;;;;7.20;4.57;;;18.50;99.90;;;;;;5080686;28;20059;-65
2023/07/24 07:43:57;;;;;;;6.25;3.75;;;18.50;99.90;;;;;;5088656;28;20541;-65
2023/07/24 07:46:22;;;;;;;7.25;4.05;;;18.50;99.90;;;;;;5072205;28;20115;-65
2023/07/24 07:48:49;;;;;;;8.82;4.55;;;18.50;99.90;;;;;;5059072;23;20083;-95
2023/07/24 07:51:15;;;;;;;7.68;4.50;;;18.60;99.90;;;;;;5010010;28;20100;-96
2023/07/24 07:53:41;;;;;;;7.35;4.63;;;18.50;99.90;;;;;;5014350;28;20050;-96
2023/07/24 07:56:07;;;;;;;6.47;3.80;;;18.50;99.90;;;;;;4998760;28;20049;-96
2023/07/24 07:58:33;;;;;;;5.22;4.28;;;18.50;99.90;;;;;;5026451;28;20050;-96
2023/07/24 08:01:08;;;;;;;10.13;4.20;;;18.60;99.90;;;;;;5028683;28;20049;-96
2023/07/24 08:03:53;;;;;;;6.80;4.40;;;18.70;99.90;;;;;;5007350;28;20042;-96
2023/07/24 08:06:21;;;;;;;5.53;4.00;;;18.70;99.90;;;;;;5029343;28;20108;-96
2023/07/24 08:08:47;;;;;;;7.13;3.55;;;18.80;99.90;;;;;;5012209;28;20132;-96
2023/07/24 08:11:13;;;;;;;9.65;4.35;;;18.70;99.90;;;;;;5017634;28;20113;-96
2023/07/24 08:17:24;;;;;;;9.50;4.82;;;18.80;99.90;;;;;;5033786;28;20032;-96
2023/07/24 08:19:50;;;;;;;8.95;4.65;;;18.70;99.90;;;;;;5023897;28;20128;-96
2023/07/24 08:22:16;;;;;;;6.03;4.28;;;18.70;99.90;;;;;;5023498;28;20104;-96
2023/07/24 08:24:54;;;;;;;9.55;4.50;;;18.70;99.90;;;;;;5022204;28;20064;-96
2023/07/24 08:31:02;;;;;;;9.15;4.10;;;18.90;99.90;;;;;;5041187;28;20091;-96
2023/07/24 08:33:32;;;;;;;4.65;3.53;;;18.80;99.90;;;;;;5021853;28;20057;-96
2023/07/24 08:36:08;;;;;;;4.68;3.78;;;18.90;99.90;;;;;;5008659;28;20091;-96
2023/07/24 08:42:32;;;;;;;4.57;4.03;;;18.90;99.90;;;;;;5059666;28;20124;-96
2023/07/24 08:48:40;;;;;;;7.10;3.47;;;19.00;99.90;;;;;;5066910;28;20063;-96
2023/07/24 08:51:11;;;;;;;9.05;4.30;;;19.00;99.90;;;;;;5046590;28;20112;-96
2023/07/24 08:53:40;;;;;;;7.10;3.45;;;19.00;99.90;;;;;;5028293;28;20048;-96
2023/07/24 08:56:17;;;;;;;10.05;4.20;;;19.00;99.90;;;;;;5049326;28;20086;-96
2023/07/24 08:58:42;;;;;;;7.85;3.60;;;19.00;99.90;;;;;;5020825;28;20070;-96
2023/07/24 09:01:09;;;;;;;5.95;3.42;;;19.10;99.90;;;;;;5047055;28;20131;-96
2023/07/24 09:03:38;;;;;;;6.80;3.90;;;19.10;99.90;;;;;;5034612;28;20049;-96
2023/07/24 09:12:29;;;;;;;7.90;3.85;;;19.00;99.90;;;;;;5035771;28;20107;-64
2023/07/24 09:15:05;;;;;;;6.10;3.53;;;19.00;99.90;;;;;;5015606;28;20049;-64
2023/07/24 09:17:31;;;;;;;6.43;3.35;;;19.00;99.90;;;;;;5048705;28;20107;-64
2023/07/24 09:19:57;;;;;;;8.88;3.25;;;19.00;99.90;;;;;;5031799;28;20041;-64
2023/07/24 09:22:23;;;;;;;7.57;3.25;;;19.10;99.90;;;;;;5044997;28;20077;-64
2023/07/24 09:24:50;;;;;;;4.13;2.95;;;19.10;99.90;;;;;;5039402;28;20093;-64
2023/07/24 09:27:17;;;;;;;10.77;3.53;;;19.20;99.90;;;;;;5049077;28;20037;-64
2023/07/24 09:29:42;;;;;;;7.28;3.80;;;19.30;99.90;;;;;;5031481;28;20044;-64
2023/07/24 09:32:22;;;;;;;8.32;4.22;;;19.30;99.90;;;;;;5047409;28;20057;-64
2023/07/24 09:34:50;;;;;;;10.93;3.58;;;19.30;99.90;;;;;;5046388;28;20446;-64
2023/07/24 09:37:34;;;;;;;10.43;3.40;;;19.40;99.90;;;;;;5047309;28;20049;-64
2023/07/24 09:39:59;;;;;;;5.55;3.10;;;19.50;99.90;;;;;;5048256;28;20061;-64
2023/07/24 09:42:33;;;;;;;6.20;3.10;;;19.60;99.90;;;;;;5030721;28;20052;-64
2023/07/24 09:45:04;;;;;;;4.25;2.97;;;19.70;99.90;;;;;;5048683;28;20036;-64
2023/07/24 09:47:31;;;;;;;13.20;4.20;;;19.80;99.90;;;;;;5049367;28;20123;-64
2023/07/24 09:49:56;;;;;;;7.25;4.05;;;20.10;99.90;;;;;;5049217;28;20041;-64
2023/07/24 09:52:27;;;;;;;7.53;3.38;;;20.20;99.90;;;;;;5030471;28;20509;-64
2023/07/24 09:55:30;;;;;;;6.95;3.63;;;20.50;99.90;;;;;;5049018;28;20363;-65
2023/07/24 09:57:56;;;;;;;6.22;3.97;;;20.70;99.90;;;;;;4998536;28;20060;-64
2023/07/24 10:00:22;;;;;;;9.20;4.00;;;20.90;99.90;;;;;;5048629;28;20059;-64
2023/07/24 10:02:48;;;;;;;6.55;3.75;;;20.90;99.90;;;;;;5012200;28;20036;-64
2023/07/24 10:05:15;;;;;;;6.53;3.83;;;21.10;99.90;;;;;;5047978;28;20079;-64
2023/07/24 10:07:41;;;;;;;6.55;3.72;;;21.40;99.90;;;;;;5048540;28;20060;-64
2023/07/24 10:10:08;;;;;;;9.10;4.13;;;21.50;99.90;;;;;;5035464;28;20068;-64
2023/07/24 10:12:34;;;;;;;7.75;3.78;;;21.70;99.90;;;;;;5027383;28;20060;-64
2023/07/24 10:15:01;;;;;;;14.88;5.50;;;21.70;99.90;;;;;;5063260;23;20041;-62
2023/07/24 10:17:41;;;;;;;7.47;4.97;;;21.90;99.90;;;;;;5007800;28;20505;-62
2023/07/24 10:20:10;;;;;;;6.15;4.70;;;21.90;97.10;;;;;;5007889;28;20132;-61
2023/07/24 10:22:41;;;;;;;8.70;4.30;;;21.90;99.90;;;;;;5005061;28;20066;-61
2023/07/24 10:25:08;;;;;;;4.65;4.07;;;22.10;99.90;;;;;;5000616;28;20053;-62
2023/07/24 10:27:46;;;;;;;8.25;4.65;;;22.30;98.90;;;;;;5006577;28;20060;-61
2023/07/24 10:30:12;;;;;;;7.40;4.60;;;22.40;90.20;;;;;;4979280;28;20069;-60
2023/07/24 10:32:49;;;;;;;14.73;5.25;;;22.40;90.70;;;;;;4988762;28;20042;-61
2023/07/24 10:35:17;;;;;;;7.22;4.20;;;22.40;86.80;;;;;;5005391;28;20050;-63
2023/07/24 10:37:43;;;;;;;10.27;4.60;;;22.40;92.60;;;;;;5007518;28;20103;-63
2023/07/24 10:40:20;;;;;;;11.68;5.53;;;22.60;93.50;;;;;;4988870;28;20038;-62
2023/07/24 10:42:45;;;;;;;7.38;4.72;;;22.60;83.40;;;;;;5008008;28;20046;-63
2023/07/24 10:45:12;;;;;;;8.40;5.15;;;22.50;90.20;;;;;;4972514;28;20135;-62
2023/07/24 10:47:39;;;;;;;8.13;4.63;;;22.40;91.80;;;;;;5007879;28;20048;-62
2023/07/24 10:50:05;;;;;;;9.02;4.57;;;22.20;85.60;;;;;;5001004;28;20581;-62
2023/07/24 10:52:32;;;;;;;10.38;4.30;;;22.00;91.10;;;;;;5005404;28;20033;-62
2023/07/24 10:55:05;;;;;;;7.63;5.25;;;21.80;92.20;;;;;;4971570;28;20050;-62
2023/07/24 10:57:31;;;;;;;11.13;5.05;;;21.70;97.10;;;;;;5006770;28;20052;-61
2023/07/24 10:59:57;;;;;;;9.98;5.80;;;21.40;92.70;;;;;;5009202;28;20049;-62
2023/07/24 11:02:23;;;;;;;12.00;4.55;;;21.40;95.80;;;;;;5005024;28;20145;-63
2023/07/24 11:04:49;;;;;;;5.47;4.88;;;21.60;97.00;;;;;;5006871;28;20477;-63
2023/07/24 11:07:15;;;;;;;8.82;4.65;;;21.80;98.50;;;;;;5005901;28;20046;-62
2023/07/24 11:09:41;;;;;;;7.43;3.95;;;22.00;97.50;;;;;;5005542;28;20400;-63
2023/07/24 11:12:13;;;;;;;9.00;5.07;;;22.10;92.40;;;;;;5001270;28;20132;-63
2023/07/24 11:15:06;;;;;;;8.25;3.80;;;22.20;94.50;;;;;;5002382;28;20038;-63
2023/07/24 11:17:37;;;;;;;3.88;3.50;;;22.10;81.30;;;;;;5003332;28;20427;-63
2023/07/24 11:20:14;;;;;;;6.78;3.40;;;22.00;78.00;;;;;;4994425;28;20065;-63
2023/07/24 11:22:42;;;;;;;4.25;2.75;;;22.10;83.40;;;;;;5006374;28;20045;-63
2023/07/24 11:25:09;;;;;;;10.05;3.40;;;22.30;87.00;;;;;;4992539;28;20121;-62
2023/07/24 11:27:43;;;;;;;4.93;3.00;;;22.60;91.70;;;;;;5002603;28;20655;-63
2023/07/24 11:30:13;;;;;;;5.45;3.38;;;22.90;92.80;;;;;;5005313;28;20155;-63
2023/07/24 11:32:39;;;;;;;;;;;23.00;68.90;;;;;;4967891;28;20145;-63
2023/07/24 11:35:06;;;;;;;3.35;2.45;;;22.70;65.70;;;;;;5006532;28;19925;-63
2023/07/24 11:37:34;;;;;;;2.75;1.60;;;22.20;72.00;;;;;;5006583;28;20056;-62
2023/07/24 11:40:04;;;;;;;2.33;2.10;;;21.70;82.10;;;;;;4988133;28;20050;-63
2023/07/24 11:42:30;;;;;;;9.57;2.10;;;21.50;88.90;;;;;;5003104;28;20049;-63
2023/07/24 11:45:00;;;;;;;3.38;2.38;;;21.20;93.90;;;;;;5003597;28;20046;-63
2023/07/24 11:47:26;;;;;;;;;;;21.10;93.60;;;;;;5006787;28;20052;-62
2023/07/24 11:50:01;;;;;;;3.42;2.13;;;21.00;96.10;;;;;;5004038;28;19925;-62
2023/07/24 11:52:43;;;;;;;3.38;2.72;;;20.90;98.60;;;;;;5004142;28;20089;-62
2023/07/24 11:55:13;;;;;;;5.88;2.78;;;20.90;99.90;;;;;;4999819;28;20042;-62
2023/07/24 11:57:39;;;;;;;2.88;2.58;;;20.90;97.60;;;;;;4973748;28;20042;-63
2023/07/24 12:00:16;;;;;;;6.10;2.55;;;20.80;99.50;;;;;;4994528;28;20507;-63
2023/07/24 12:02:42;;;;;;;5.05;2.40;;;20.70;99.90;;;;;;5002305;28;20042;-62
2023/07/24 12:05:10;;;;;;;3.63;2.30;;;20.70;99.90;;;;;;4987079;28;20551;-65
2023/07/24 12:07:36;;;;;;;5.65;2.10;;;20.70;99.90;;;;;;4987595;28;20571;-63
2023/07/24 12:10:03;;;;;;;4.57;2.20;;;20.70;99.90;;;;;;5009055;28;20046;-63
2023/07/24 12:12:46;;;;;;;4.35;1.90;;;20.70;99.90;;;;;;5011447;28;20049;-63
2023/07/24 12:15:14;;;;;;;4.05;2.45;;;20.70;97.80;;;;;;5012593;28;20053;-63
2023/07/24 12:17:41;;;;;;;2.25;1.80;;;20.60;97.40;;;;;;5010788;28;20042;-63
2023/07/24 12:20:11;;;;;;;4.93;2.75;;;20.60;98.10;;;;;;5008245;28;20115;-61
2023/07/24 12:22:38;;;;;;;4.25;2.28;;;20.50;99.20;;;;;;5009998;28;20828;-61
2023/07/24 12:25:06;;;;;;;2.30;2.10;;;20.60;99.90;;;;;;5008757;28;20108;-62
2023/07/24 12:27:32;;;;;;;3.15;2.15;;;20.80;99.90;;;;;;5009225;28;20056;-62
2023/07/24 12:29:59;;;;;;;4.30;2.20;;;20.90;99.90;;;;;;5010018;28;20403;-62
2023/07/24 12:32:25;;;;;;;5.43;2.50;;;21.10;97.30;;;;;;5008185;28;20201;-63
2023/07/24 12:34:52;;;;;;;7.47;2.60;;;21.10;95.90;;;;;;5007519;28;20042;-63
2023/07/24 12:37:19;;;;;;;4.40;1.90;;;21.00;93.90;;;;;;5008913;28;20049;-62
2023/07/24 12:39:55;;;;;;;4.50;2.08;;;20.90;98.00;;;;;;5011319;28;20669;-62
2023/07/24 12:42:21;;;;;;;2.70;2.13;;;20.90;95.90;;;;;;5008289;28;20102;-62
2023/07/24 12:44:47;;;;;;;2.08;1.88;;;20.80;95.60;;;;;;5014483;28;20038;-63
2023/07/24 12:47:13;;;;;;;2.55;1.75;;;20.70;99.80;;;;;;5009804;28;20050;-63
2023/07/24 12:49:39;;;;;;;4.70;1.98;;;20.70;99.90;;;;;;4990612;28;20037;-63
2023/07/24 12:52:05;;;;;;;2.90;1.63;;;20.50;99.90;;;;;;4999674;28;20056;-62
2023/07/24 12:54:33;;;;;;;1.88;1.60;;;20.30;99.90;;;;;;5006027;28;20034;-64
2023/07/24 12:56:58;;;;;;;3.75;1.92;;;20.10;99.90;;;;;;5001057;28;20045;-63
2023/07/24 12:59:24;;;;;;;2.17;1.80;;;20.00;99.90;;;;;;5007229;28;20129;-63
2023/07/24 13:01:50;;;;;;;6.97;1.85;;;19.80;99.90;;;;;;4971540;28;20109;-63
2023/07/24 13:04:16;;;;;;;2.35;2.03;;;19.70;99.90;;;;;;5007108;28;20041;-63
2023/07/24 13:06:42;;;;;;;1.92;1.52;;;19.50;99.90;;;;;;4989315;28;20058;-63